sensor_id;sensor_type;location;lat;lon;timestamp;P1;durP1;ratioP1;P2;durP2;ratioP2
1679;SDS011;838;51.794;12.258;2023-04-15T00:00:08;12.43;;;9.17;;
1679;SDS011;838;51.794;12.258;2023-04-15T00:02:36;12.70;;;9.40;;
1679;SDS011;838;51.794;12.258;2023-04-15T00:05:02;13.93;;;10.17;;
1679;SDS011;838;51.794;12.258;2023-04-15T00:07:29;11.73;;;8.77;;
1679;SDS011;838;51.794;12.258;2023-04-15T00:09:56;12.00;;;9.20;;
1679;SDS011;838;51.794;12.258;2023-04-15T00:12:23;11.80;;;8.63;;
1679;SDS011;838;51.794;12.258;2023-04-15T00:14:49;16.40;;;9.50;;
1679;SDS011;838;51.794;12.258;2023-04-15T00:17:15;14.13;;;9.50;;
1679;SDS011;838;51.794;12.258;2023-04-15T00:19:41;13.47;;;9.53;;
1679;SDS011;838;51.794;12.258;2023-04-15T00:22:08;13.60;;;9.80;;
1679;SDS011;838;51.794;12.258;2023-04-15T00:24:34;14.03;;;10.00;;
1679;SDS011;838;51.794;12.258;2023-04-15T00:27:00;12.83;;;8.67;;
1679;SDS011;838;51.794;12.258;2023-04-15T00:29:27;11.87;;;8.87;;
1679;SDS011;838;51.794;12.258;2023-04-15T00:31:54;15.27;;;8.90;;
1679;SDS011;838;51.794;12.258;2023-04-15T00:34:20;17.73;;;10.93;;
1679;SDS011;838;51.794;12.258;2023-04-15T00:36:47;15.70;;;10.97;;
1679;SDS011;838;51.794;12.258;2023-04-15T00:39:13;18.00;;;10.60;;
1679;SDS011;838;51.794;12.258;2023-04-15T00:41:40;15.73;;;9.77;;
1679;SDS011;838;51.794;12.258;2023-04-15T00:44:07;12.57;;;8.93;;
1679;SDS011;838;51.794;12.258;2023-04-15T00:46:37;14.10;;;9.23;;
1679;SDS011;838;51.794;12.258;2023-04-15T00:49:04;14.17;;;9.90;;
1679;SDS011;838;51.794;12.258;2023-04-15T00:51:31;15.13;;;9.03;;
1679;SDS011;838;51.794;12.258;2023-04-15T00:54:04;12.30;;;9.03;;
1679;SDS011;838;51.794;12.258;2023-04-15T00:56:35;12.80;;;8.90;;
1679;SDS011;838;51.794;12.258;2023-04-15T00:59:02;11.93;;;8.67;;
1679;SDS011;838;51.794;12.258;2023-04-15T01:01:28;14.60;;;10.00;;
1679;SDS011;838;51.794;12.258;2023-04-15T01:03:55;13.83;;;9.17;;
1679;SDS011;838;51.794;12.258;2023-04-15T01:06:22;14.80;;;9.43;;
1679;SDS011;838;51.794;12.258;2023-04-15T01:08:48;14.47;;;9.60;;
1679;SDS011;838;51.794;12.258;2023-04-15T01:11:15;13.27;;;8.53;;
1679;SDS011;838;51.794;12.258;2023-04-15T01:13:42;15.40;;;9.43;;
1679;SDS011;838;51.794;12.258;2023-04-15T01:16:08;12.50;;;8.83;;
1679;SDS011;838;51.794;12.258;2023-04-15T01:18:34;12.80;;;8.77;;
1679;SDS011;838;51.794;12.258;2023-04-15T01:21:03;14.67;;;8.73;;
1679;SDS011;838;51.794;12.258;2023-04-15T01:23:29;13.07;;;9.07;;
1679;SDS011;838;51.794;12.258;2023-04-15T01:25:56;10.73;;;7.80;;
1679;SDS011;838;51.794;12.258;2023-04-15T01:28:23;11.87;;;7.83;;
1679;SDS011;838;51.794;12.258;2023-04-15T01:30:49;13.00;;;8.70;;
1679;SDS011;838;51.794;12.258;2023-04-15T01:33:29;13.13;;;8.93;;
1679;SDS011;838;51.794;12.258;2023-04-15T01:35:55;13.50;;;8.23;;
1679;SDS011;838;51.794;12.258;2023-04-15T01:38:21;10.73;;;7.63;;
1679;SDS011;838;51.794;12.258;2023-04-15T01:40:47;13.50;;;8.07;;
1679;SDS011;838;51.794;12.258;2023-04-15T01:43:13;14.67;;;7.67;;
1679;SDS011;838;51.794;12.258;2023-04-15T01:45:39;12.87;;;8.20;;
1679;SDS011;838;51.794;12.258;2023-04-15T01:48:05;10.13;;;7.30;;
1679;SDS011;838;51.794;12.258;2023-04-15T01:50:32;10.67;;;7.00;;
1679;SDS011;838;51.794;12.258;2023-04-15T01:52:58;12.20;;;7.57;;
1679;SDS011;838;51.794;12.258;2023-04-15T01:55:23;8.67;;;6.43;;
1679;SDS011;838;51.794;12.258;2023-04-15T01:57:49;11.03;;;7.77;;
1679;SDS011;838;51.794;12.258;2023-04-15T02:00:18;9.80;;;7.00;;
1679;SDS011;838;51.794;12.258;2023-04-15T02:02:44;10.10;;;7.10;;
1679;SDS011;838;51.794;12.258;2023-04-15T02:05:09;11.00;;;7.33;;
1679;SDS011;838;51.794;12.258;2023-04-15T02:07:35;11.43;;;8.00;;
1679;SDS011;838;51.794;12.258;2023-04-15T02:10:01;10.73;;;7.30;;
1679;SDS011;838;51.794;12.258;2023-04-15T02:12:28;9.93;;;7.67;;
1679;SDS011;838;51.794;12.258;2023-04-15T02:14:54;11.63;;;7.90;;
1679;SDS011;838;51.794;12.258;2023-04-15T02:17:20;9.43;;;6.57;;
1679;SDS011;838;51.794;12.258;2023-04-15T02:19:45;10.47;;;7.50;;
1679;SDS011;838;51.794;12.258;2023-04-15T02:22:12;11.20;;;7.07;;
1679;SDS011;838;51.794;12.258;2023-04-15T02:24:42;11.60;;;6.77;;
1679;SDS011;838;51.794;12.258;2023-04-15T02:27:08;10.10;;;7.00;;
1679;SDS011;838;51.794;12.258;2023-04-15T02:29:34;9.93;;;7.07;;
1679;SDS011;838;51.794;12.258;2023-04-15T02:32:00;10.30;;;6.53;;
1679;SDS011;838;51.794;12.258;2023-04-15T02:34:25;9.30;;;6.33;;
1679;SDS011;838;51.794;12.258;2023-04-15T02:36:51;10.60;;;6.47;;
1679;SDS011;838;51.794;12.258;2023-04-15T02:39:21;9.20;;;6.57;;
1679;SDS011;838;51.794;12.258;2023-04-15T02:41:48;9.57;;;6.87;;
1679;SDS011;838;51.794;12.258;2023-04-15T02:44:16;12.33;;;6.73;;
1679;SDS011;838;51.794;12.258;2023-04-15T02:46:47;8.97;;;6.93;;
1679;SDS011;838;51.794;12.258;2023-04-15T02:49:16;9.87;;;6.43;;
1679;SDS011;838;51.794;12.258;2023-04-15T02:51:42;9.40;;;5.93;;
1679;SDS011;838;51.794;12.258;2023-04-15T02:54:13;9.80;;;6.60;;
1679;SDS011;838;51.794;12.258;2023-04-15T02:56:42;9.17;;;6.30;;
1679;SDS011;838;51.794;12.258;2023-04-15T02:59:08;12.10;;;7.17;;
1679;SDS011;838;51.794;12.258;2023-04-15T03:01:33;10.37;;;6.70;;
1679;SDS011;838;51.794;12.258;2023-04-15T03:03:59;8.67;;;6.63;;
1679;SDS011;838;51.794;12.258;2023-04-15T03:06:25;9.17;;;6.77;;
1679;SDS011;838;51.794;12.258;2023-04-15T03:08:51;11.40;;;7.37;;
1679;SDS011;838;51.794;12.258;2023-04-15T03:11:17;8.00;;;6.13;;
1679;SDS011;838;51.794;12.258;2023-04-15T03:13:43;9.60;;;6.30;;
1679;SDS011;838;51.794;12.258;2023-04-15T03:16:09;8.57;;;6.40;;
1679;SDS011;838;51.794;12.258;2023-04-15T03:18:35;8.00;;;5.90;;
1679;SDS011;838;51.794;12.258;2023-04-15T03:21:00;9.00;;;6.00;;
1679;SDS011;838;51.794;12.258;2023-04-15T03:23:27;8.60;;;6.60;;
1679;SDS011;838;51.794;12.258;2023-04-15T03:25:52;9.53;;;6.80;;
1679;SDS011;838;51.794;12.258;2023-04-15T03:28:22;8.57;;;5.50;;
1679;SDS011;838;51.794;12.258;2023-04-15T03:30:48;9.03;;;6.70;;
1679;SDS011;838;51.794;12.258;2023-04-15T03:33:14;9.60;;;6.13;;
1679;SDS011;838;51.794;12.258;2023-04-15T03:35:40;8.53;;;6.00;;
1679;SDS011;838;51.794;12.258;2023-04-15T03:38:05;10.63;;;7.00;;
1679;SDS011;838;51.794;12.258;2023-04-15T03:40:31;9.90;;;6.63;;
1679;SDS011;838;51.794;12.258;2023-04-15T03:42:57;10.47;;;6.67;;
1679;SDS011;838;51.794;12.258;2023-04-15T03:45:22;9.50;;;6.50;;
1679;SDS011;838;51.794;12.258;2023-04-15T03:47:48;9.57;;;6.70;;
1679;SDS011;838;51.794;12.258;2023-04-15T03:50:14;10.70;;;7.47;;
1679;SDS011;838;51.794;12.258;2023-04-15T03:52:40;10.47;;;7.00;;
1679;SDS011;838;51.794;12.258;2023-04-15T03:55:06;9.03;;;6.50;;
1679;SDS011;838;51.794;12.258;2023-04-15T03:57:32;9.60;;;6.80;;
1679;SDS011;838;51.794;12.258;2023-04-15T04:00:02;10.90;;;6.40;;
1679;SDS011;838;51.794;12.258;2023-04-15T04:02:29;9.43;;;6.00;;
1679;SDS011;838;51.794;12.258;2023-04-15T04:04:54;9.67;;;6.63;;
1679;SDS011;838;51.794;12.258;2023-04-15T04:07:22;11.43;;;5.60;;
1679;SDS011;838;51.794;12.258;2023-04-15T04:09:48;11.10;;;7.00;;
1679;SDS011;838;51.794;12.258;2023-04-15T04:12:14;9.73;;;6.80;;
1679;SDS011;838;51.794;12.258;2023-04-15T04:14:39;11.30;;;7.57;;
1679;SDS011;838;51.794;12.258;2023-04-15T04:17:05;10.50;;;7.10;;
1679;SDS011;838;51.794;12.258;2023-04-15T04:19:31;9.63;;;6.70;;
1679;SDS011;838;51.794;12.258;2023-04-15T04:21:56;12.67;;;8.07;;
1679;SDS011;838;51.794;12.258;2023-04-15T04:24:22;10.13;;;7.53;;
1679;SDS011;838;51.794;12.258;2023-04-15T04:26:48;10.50;;;7.90;;
1679;SDS011;838;51.794;12.258;2023-04-15T04:29:14;9.73;;;6.40;;
1679;SDS011;838;51.794;12.258;2023-04-15T04:31:39;9.50;;;6.70;;
1679;SDS011;838;51.794;12.258;2023-04-15T04:34:07;11.63;;;6.90;;
1679;SDS011;838;51.794;12.258;2023-04-15T04:36:32;9.83;;;7.00;;
1679;SDS011;838;51.794;12.258;2023-04-15T04:38:58;14.87;;;8.53;;
1679;SDS011;838;51.794;12.258;2023-04-15T04:41:24;10.80;;;7.40;;
1679;SDS011;838;51.794;12.258;2023-04-15T04:43:50;10.97;;;7.73;;
1679;SDS011;838;51.794;12.258;2023-04-15T04:46:15;10.70;;;7.00;;
1679;SDS011;838;51.794;12.258;2023-04-15T04:48:41;12.73;;;7.70;;
1679;SDS011;838;51.794;12.258;2023-04-15T04:51:07;10.90;;;7.73;;
1679;SDS011;838;51.794;12.258;2023-04-15T04:53:33;12.50;;;7.87;;
1679;SDS011;838;51.794;12.258;2023-04-15T04:55:59;12.37;;;7.90;;
1679;SDS011;838;51.794;12.258;2023-04-15T04:58:25;9.23;;;6.40;;
1679;SDS011;838;51.794;12.258;2023-04-15T05:00:51;12.33;;;7.47;;
1679;SDS011;838;51.794;12.258;2023-04-15T05:03:17;12.47;;;7.53;;
1679;SDS011;838;51.794;12.258;2023-04-15T05:05:42;10.43;;;7.20;;
1679;SDS011;838;51.794;12.258;2023-04-15T05:08:08;14.23;;;7.80;;
1679;SDS011;838;51.794;12.258;2023-04-15T05:10:34;12.17;;;6.80;;
1679;SDS011;838;51.794;12.258;2023-04-15T05:13:00;10.40;;;7.37;;
1679;SDS011;838;51.794;12.258;2023-04-15T05:15:26;11.80;;;7.80;;
1679;SDS011;838;51.794;12.258;2023-04-15T05:17:52;10.83;;;7.00;;
1679;SDS011;838;51.794;12.258;2023-04-15T05:20:18;10.13;;;7.03;;
1679;SDS011;838;51.794;12.258;2023-04-15T05:22:44;11.50;;;8.47;;
1679;SDS011;838;51.794;12.258;2023-04-15T05:25:09;11.73;;;7.80;;
1679;SDS011;838;51.794;12.258;2023-04-15T05:27:36;12.50;;;7.57;;
1679;SDS011;838;51.794;12.258;2023-04-15T05:30:01;10.70;;;7.10;;
1679;SDS011;838;51.794;12.258;2023-04-15T05:32:27;11.17;;;7.57;;
1679;SDS011;838;51.794;12.258;2023-04-15T05:34:53;14.07;;;8.30;;
1679;SDS011;838;51.794;12.258;2023-04-15T05:37:18;13.97;;;8.57;;
1679;SDS011;838;51.794;12.258;2023-04-15T05:39:47;13.10;;;7.37;;
1679;SDS011;838;51.794;12.258;2023-04-15T05:42:13;12.77;;;8.03;;
1679;SDS011;838;51.794;12.258;2023-04-15T05:44:38;13.03;;;8.57;;
1679;SDS011;838;51.794;12.258;2023-04-15T05:47:04;11.53;;;7.63;;
1679;SDS011;838;51.794;12.258;2023-04-15T05:49:31;13.80;;;8.40;;
1679;SDS011;838;51.794;12.258;2023-04-15T05:51:56;13.47;;;7.73;;
1679;SDS011;838;51.794;12.258;2023-04-15T05:54:22;13.97;;;9.00;;
1679;SDS011;838;51.794;12.258;2023-04-15T05:56:48;12.07;;;8.10;;
1679;SDS011;838;51.794;12.258;2023-04-15T05:59:13;12.47;;;8.17;;
1679;SDS011;838;51.794;12.258;2023-04-15T06:01:39;14.67;;;9.50;;
1679;SDS011;838;51.794;12.258;2023-04-15T06:04:05;17.30;;;9.93;;
1679;SDS011;838;51.794;12.258;2023-04-15T06:06:31;12.93;;;8.07;;
1679;SDS011;838;51.794;12.258;2023-04-15T06:08:57;14.67;;;9.80;;
1679;SDS011;838;51.794;12.258;2023-04-15T06:11:23;18.57;;;9.00;;
1679;SDS011;838;51.794;12.258;2023-04-15T06:13:49;13.43;;;9.10;;
1679;SDS011;838;51.794;12.258;2023-04-15T06:16:14;16.33;;;10.30;;
1679;SDS011;838;51.794;12.258;2023-04-15T06:18:40;16.00;;;10.80;;
1679;SDS011;838;51.794;12.258;2023-04-15T06:21:06;15.23;;;9.90;;
1679;SDS011;838;51.794;12.258;2023-04-15T06:23:35;20.53;;;10.90;;
1679;SDS011;838;51.794;12.258;2023-04-15T06:26:01;17.70;;;10.20;;
1679;SDS011;838;51.794;12.258;2023-04-15T06:28:27;13.40;;;9.57;;
1679;SDS011;838;51.794;12.258;2023-04-15T06:30:53;18.03;;;11.00;;
1679;SDS011;838;51.794;12.258;2023-04-15T06:33:20;16.37;;;10.90;;
1679;SDS011;838;51.794;12.258;2023-04-15T06:35:45;16.80;;;11.53;;
1679;SDS011;838;51.794;12.258;2023-04-15T06:38:12;18.60;;;12.17;;
1679;SDS011;838;51.794;12.258;2023-04-15T06:40:38;19.60;;;11.37;;
1679;SDS011;838;51.794;12.258;2023-04-15T06:43:04;21.60;;;13.27;;
1679;SDS011;838;51.794;12.258;2023-04-15T06:45:30;18.43;;;11.53;;
1679;SDS011;838;51.794;12.258;2023-04-15T06:47:56;16.90;;;11.03;;
1679;SDS011;838;51.794;12.258;2023-04-15T06:50:22;22.30;;;12.20;;
1679;SDS011;838;51.794;12.258;2023-04-15T06:52:47;19.07;;;11.20;;
1679;SDS011;838;51.794;12.258;2023-04-15T06:55:13;22.97;;;14.20;;
1679;SDS011;838;51.794;12.258;2023-04-15T06:57:39;19.67;;;12.20;;
1679;SDS011;838;51.794;12.258;2023-04-15T07:00:05;22.50;;;14.03;;
1679;SDS011;838;51.794;12.258;2023-04-15T07:02:32;21.37;;;12.87;;
1679;SDS011;838;51.794;12.258;2023-04-15T07:04:57;21.47;;;13.70;;
1679;SDS011;838;51.794;12.258;2023-04-15T07:07:23;21.03;;;12.73;;
1679;SDS011;838;51.794;12.258;2023-04-15T07:09:49;24.10;;;15.57;;
1679;SDS011;838;51.794;12.258;2023-04-15T07:12:17;23.67;;;14.27;;
1679;SDS011;838;51.794;12.258;2023-04-15T07:14:43;25.30;;;15.07;;
1679;SDS011;838;51.794;12.258;2023-04-15T07:17:09;30.00;;;16.67;;
1679;SDS011;838;51.794;12.258;2023-04-15T07:19:36;22.03;;;15.03;;
1679;SDS011;838;51.794;12.258;2023-04-15T07:22:01;23.37;;;14.87;;
1679;SDS011;838;51.794;12.258;2023-04-15T07:24:27;29.23;;;16.73;;
1679;SDS011;838;51.794;12.258;2023-04-15T07:26:54;27.60;;;18.30;;
1679;SDS011;838;51.794;12.258;2023-04-15T07:29:23;26.20;;;18.90;;
1679;SDS011;838;51.794;12.258;2023-04-15T07:31:49;29.70;;;19.80;;
1679;SDS011;838;51.794;12.258;2023-04-15T07:34:15;35.50;;;20.97;;
1679;SDS011;838;51.794;12.258;2023-04-15T07:36:41;34.17;;;19.43;;
1679;SDS011;838;51.794;12.258;2023-04-15T07:39:07;35.07;;;22.73;;
1679;SDS011;838;51.794;12.258;2023-04-15T07:41:33;38.90;;;22.87;;
1679;SDS011;838;51.794;12.258;2023-04-15T07:43:59;36.67;;;21.70;;
1679;SDS011;838;51.794;12.258;2023-04-15T07:46:24;32.57;;;20.50;;
1679;SDS011;838;51.794;12.258;2023-04-15T07:48:51;36.97;;;22.87;;
1679;SDS011;838;51.794;12.258;2023-04-15T07:51:18;38.97;;;23.10;;
1679;SDS011;838;51.794;12.258;2023-04-15T07:53:45;37.63;;;23.93;;
1679;SDS011;838;51.794;12.258;2023-04-15T07:56:12;36.83;;;23.23;;
1679;SDS011;838;51.794;12.258;2023-04-15T07:58:38;39.10;;;24.87;;
1679;SDS011;838;51.794;12.258;2023-04-15T08:01:04;38.77;;;24.07;;
1679;SDS011;838;51.794;12.258;2023-04-15T08:03:30;39.53;;;25.03;;
1679;SDS011;838;51.794;12.258;2023-04-15T08:05:57;35.17;;;23.83;;
1679;SDS011;838;51.794;12.258;2023-04-15T08:08:22;35.37;;;23.53;;
1679;SDS011;838;51.794;12.258;2023-04-15T08:10:48;36.83;;;25.07;;
1679;SDS011;838;51.794;12.258;2023-04-15T08:13:14;40.50;;;26.17;;
1679;SDS011;838;51.794;12.258;2023-04-15T08:15:41;38.87;;;25.33;;
1679;SDS011;838;51.794;12.258;2023-04-15T08:18:07;41.03;;;25.50;;
1679;SDS011;838;51.794;12.258;2023-04-15T08:20:32;45.27;;;27.27;;
1679;SDS011;838;51.794;12.258;2023-04-15T08:22:58;42.03;;;26.00;;
1679;SDS011;838;51.794;12.258;2023-04-15T08:25:24;35.13;;;25.07;;
1679;SDS011;838;51.794;12.258;2023-04-15T08:27:50;39.50;;;25.83;;
1679;SDS011;838;51.794;12.258;2023-04-15T08:30:16;37.70;;;25.60;;
1679;SDS011;838;51.794;12.258;2023-04-15T08:32:44;42.00;;;27.20;;
1679;SDS011;838;51.794;12.258;2023-04-15T08:35:11;43.20;;;29.03;;
1679;SDS011;838;51.794;12.258;2023-04-15T08:37:37;41.20;;;26.93;;
1679;SDS011;838;51.794;12.258;2023-04-15T08:40:03;43.83;;;28.03;;
1679;SDS011;838;51.794;12.258;2023-04-15T08:42:34;37.77;;;27.30;;
1679;SDS011;838;51.794;12.258;2023-04-15T08:45:05;40.73;;;27.67;;
1679;SDS011;838;51.794;12.258;2023-04-15T08:47:35;44.27;;;28.10;;
1679;SDS011;838;51.794;12.258;2023-04-15T08:50:04;44.07;;;27.40;;
1679;SDS011;838;51.794;12.258;2023-04-15T08:52:33;40.03;;;29.67;;
1679;SDS011;838;51.794;12.258;2023-04-15T08:54:59;43.23;;;29.10;;
1679;SDS011;838;51.794;12.258;2023-04-15T08:57:27;42.80;;;30.30;;
1679;SDS011;838;51.794;12.258;2023-04-15T08:59:56;41.43;;;29.50;;
1679;SDS011;838;51.794;12.258;2023-04-15T09:02:23;46.43;;;30.97;;
1679;SDS011;838;51.794;12.258;2023-04-15T09:04:52;44.50;;;32.30;;
1679;SDS011;838;51.794;12.258;2023-04-15T09:07:18;45.10;;;30.20;;
1679;SDS011;838;51.794;12.258;2023-04-15T09:09:44;49.40;;;31.43;;
1679;SDS011;838;51.794;12.258;2023-04-15T09:12:10;41.20;;;29.27;;
1679;SDS011;838;51.794;12.258;2023-04-15T09:14:36;40.97;;;30.40;;
1679;SDS011;838;51.794;12.258;2023-04-15T09:17:04;42.40;;;31.70;;
1679;SDS011;838;51.794;12.258;2023-04-15T09:19:34;38.77;;;29.30;;
1679;SDS011;838;51.794;12.258;2023-04-15T09:21:59;37.53;;;29.67;;
1679;SDS011;838;51.794;12.258;2023-04-15T09:24:33;42.90;;;29.90;;
1679;SDS011;838;51.794;12.258;2023-04-15T09:27:02;41.63;;;29.97;;
1679;SDS011;838;51.794;12.258;2023-04-15T09:29:28;39.43;;;29.53;;
1679;SDS011;838;51.794;12.258;2023-04-15T09:31:53;37.90;;;28.70;;
1679;SDS011;838;51.794;12.258;2023-04-15T09:34:19;44.07;;;29.73;;
1679;SDS011;838;51.794;12.258;2023-04-15T09:36:53;41.03;;;30.80;;
1679;SDS011;838;51.794;12.258;2023-04-15T09:39:20;42.07;;;31.47;;
1679;SDS011;838;51.794;12.258;2023-04-15T09:41:46;38.50;;;29.17;;
1679;SDS011;838;51.794;12.258;2023-04-15T09:44:28;39.60;;;29.43;;
1679;SDS011;838;51.794;12.258;2023-04-15T09:46:53;44.53;;;32.53;;
1679;SDS011;838;51.794;12.258;2023-04-15T09:49:19;38.93;;;30.67;;
1679;SDS011;838;51.794;12.258;2023-04-15T09:51:45;40.53;;;29.97;;
1679;SDS011;838;51.794;12.258;2023-04-15T09:54:11;40.13;;;29.60;;
1679;SDS011;838;51.794;12.258;2023-04-15T09:56:37;35.43;;;29.10;;
1679;SDS011;838;51.794;12.258;2023-04-15T09:59:07;38.33;;;30.60;;
1679;SDS011;838;51.794;12.258;2023-04-15T10:01:33;37.27;;;29.97;;
1679;SDS011;838;51.794;12.258;2023-04-15T10:04:04;37.70;;;30.43;;
1679;SDS011;838;51.794;12.258;2023-04-15T10:06:30;38.37;;;29.40;;
1679;SDS011;838;51.794;12.258;2023-04-15T10:08:59;44.50;;;31.00;;
1679;SDS011;838;51.794;12.258;2023-04-15T10:11:28;36.57;;;31.40;;
1679;SDS011;838;51.794;12.258;2023-04-15T10:13:56;37.40;;;30.10;;
1679;SDS011;838;51.794;12.258;2023-04-15T10:16:22;32.37;;;27.00;;
1679;SDS011;838;51.794;12.258;2023-04-15T10:18:56;38.00;;;29.90;;
1679;SDS011;838;51.794;12.258;2023-04-15T10:21:24;34.50;;;28.20;;
1679;SDS011;838;51.794;12.258;2023-04-15T10:23:52;33.90;;;26.43;;
1679;SDS011;838;51.794;12.258;2023-04-15T10:26:18;34.17;;;28.23;;
1679;SDS011;838;51.794;12.258;2023-04-15T10:28:45;31.10;;;25.70;;
1679;SDS011;838;51.794;12.258;2023-04-15T10:31:13;30.20;;;25.53;;
1679;SDS011;838;51.794;12.258;2023-04-15T10:33:41;30.20;;;25.00;;
1679;SDS011;838;51.794;12.258;2023-04-15T10:36:08;31.20;;;23.30;;
1679;SDS011;838;51.794;12.258;2023-04-15T10:38:39;30.03;;;25.47;;
1679;SDS011;838;51.794;12.258;2023-04-15T10:43:44;30.00;;;24.30;;
1679;SDS011;838;51.794;12.258;2023-04-15T10:46:12;27.77;;;23.50;;
1679;SDS011;838;51.794;12.258;2023-04-15T10:48:45;27.73;;;24.77;;
1679;SDS011;838;51.794;12.258;2023-04-15T10:51:15;29.50;;;24.63;;
1679;SDS011;838;51.794;12.258;2023-04-15T10:53:41;28.23;;;23.60;;
1679;SDS011;838;51.794;12.258;2023-04-15T10:56:07;28.33;;;24.03;;
1679;SDS011;838;51.794;12.258;2023-04-15T10:58:41;28.43;;;25.23;;
1679;SDS011;838;51.794;12.258;2023-04-15T11:01:07;28.90;;;23.97;;
1679;SDS011;838;51.794;12.258;2023-04-15T11:03:35;31.33;;;24.27;;
1679;SDS011;838;51.794;12.258;2023-04-15T11:06:02;31.10;;;25.30;;
1679;SDS011;838;51.794;12.258;2023-04-15T11:11:49;30.03;;;24.27;;
1679;SDS011;838;51.794;12.258;2023-04-15T11:14:27;30.23;;;25.40;;
1679;SDS011;838;51.794;12.258;2023-04-15T11:16:53;28.47;;;25.40;;
1679;SDS011;838;51.794;12.258;2023-04-15T11:19:18;31.20;;;26.40;;
1679;SDS011;838;51.794;12.258;2023-04-15T11:21:44;35.10;;;25.70;;
1679;SDS011;838;51.794;12.258;2023-04-15T11:24:10;35.80;;;25.60;;
1679;SDS011;838;51.794;12.258;2023-04-15T11:26:36;28.90;;;23.40;;
1679;SDS011;838;51.794;12.258;2023-04-15T11:29:02;30.10;;;26.20;;
1679;SDS011;838;51.794;12.258;2023-04-15T11:31:28;27.73;;;23.77;;
1679;SDS011;838;51.794;12.258;2023-04-15T11:33:54;29.67;;;25.43;;
1679;SDS011;838;51.794;12.258;2023-04-15T11:36:25;28.40;;;22.50;;
1679;SDS011;838;51.794;12.258;2023-04-15T11:38:52;25.87;;;22.83;;
1679;SDS011;838;51.794;12.258;2023-04-15T11:41:21;26.63;;;23.77;;
1679;SDS011;838;51.794;12.258;2023-04-15T11:43:47;28.17;;;24.43;;
1679;SDS011;838;51.794;12.258;2023-04-15T11:46:14;27.03;;;23.47;;
1679;SDS011;838;51.794;12.258;2023-04-15T11:48:44;29.57;;;24.50;;
1679;SDS011;838;51.794;12.258;2023-04-15T11:51:11;26.40;;;23.10;;
1679;SDS011;838;51.794;12.258;2023-04-15T11:53:39;24.23;;;21.63;;
1679;SDS011;838;51.794;12.258;2023-04-15T11:56:06;23.97;;;20.73;;
1679;SDS011;838;51.794;12.258;2023-04-15T11:58:33;23.00;;;20.13;;
1679;SDS011;838;51.794;12.258;2023-04-15T12:01:02;23.37;;;19.83;;
1679;SDS011;838;51.794;12.258;2023-04-15T12:03:29;23.77;;;19.27;;
1679;SDS011;838;51.794;12.258;2023-04-15T12:06:14;23.13;;;19.13;;
1679;SDS011;838;51.794;12.258;2023-04-15T12:11:29;20.53;;;17.93;;
1679;SDS011;838;51.794;12.258;2023-04-15T12:14:03;20.57;;;18.33;;
1679;SDS011;838;51.794;12.258;2023-04-15T12:16:30;22.03;;;17.77;;
1679;SDS011;838;51.794;12.258;2023-04-15T12:19:04;19.80;;;17.70;;
1679;SDS011;838;51.794;12.258;2023-04-15T12:21:43;18.83;;;16.83;;
1679;SDS011;838;51.794;12.258;2023-04-15T12:24:11;19.93;;;17.83;;
1679;SDS011;838;51.794;12.258;2023-04-15T12:26:42;20.60;;;17.70;;
1679;SDS011;838;51.794;12.258;2023-04-15T12:29:11;20.20;;;17.90;;
1679;SDS011;838;51.794;12.258;2023-04-15T12:34:31;19.73;;;17.57;;
1679;SDS011;838;51.794;12.258;2023-04-15T12:37:05;19.00;;;16.50;;
1679;SDS011;838;51.794;12.258;2023-04-15T12:39:37;21.00;;;17.57;;
1679;SDS011;838;51.794;12.258;2023-04-15T12:42:04;18.27;;;16.37;;
1679;SDS011;838;51.794;12.258;2023-04-15T12:44:30;19.80;;;17.73;;
1679;SDS011;838;51.794;12.258;2023-04-15T12:46:57;22.33;;;18.20;;
1679;SDS011;838;51.794;12.258;2023-04-15T12:49:23;19.43;;;17.20;;
1679;SDS011;838;51.794;12.258;2023-04-15T12:52:00;21.00;;;18.80;;
1679;SDS011;838;51.794;12.258;2023-04-15T12:54:26;20.10;;;18.00;;
1679;SDS011;838;51.794;12.258;2023-04-15T12:56:53;20.60;;;18.40;;
1679;SDS011;838;51.794;12.258;2023-04-15T12:59:19;18.73;;;16.70;;
1679;SDS011;838;51.794;12.258;2023-04-15T13:01:46;19.87;;;16.60;;
1679;SDS011;838;51.794;12.258;2023-04-15T13:04:13;18.80;;;16.80;;
1679;SDS011;838;51.794;12.258;2023-04-15T13:06:39;21.13;;;16.53;;
1679;SDS011;838;51.794;12.258;2023-04-15T13:09:05;19.73;;;17.40;;
1679;SDS011;838;51.794;12.258;2023-04-15T13:11:31;18.90;;;15.93;;
1679;SDS011;838;51.794;12.258;2023-04-15T13:14:05;17.27;;;15.47;;
1679;SDS011;838;51.794;12.258;2023-04-15T13:16:32;16.40;;;14.80;;
1679;SDS011;838;51.794;12.258;2023-04-15T13:18:59;18.00;;;14.57;;
1679;SDS011;838;51.794;12.258;2023-04-15T13:21:25;16.43;;;14.67;;
1679;SDS011;838;51.794;12.258;2023-04-15T13:23:52;15.30;;;13.70;;
1679;SDS011;838;51.794;12.258;2023-04-15T13:26:18;18.20;;;14.63;;
1679;SDS011;838;51.794;12.258;2023-04-15T13:28:44;15.83;;;14.27;;
1679;SDS011;838;51.794;12.258;2023-04-15T13:31:10;15.90;;;13.70;;
1679;SDS011;838;51.794;12.258;2023-04-15T13:33:36;13.80;;;12.30;;
1679;SDS011;838;51.794;12.258;2023-04-15T13:36:02;14.17;;;12.27;;
1679;SDS011;838;51.794;12.258;2023-04-15T13:38:28;12.50;;;10.83;;
1679;SDS011;838;51.794;12.258;2023-04-15T13:40:54;13.47;;;12.07;;
1679;SDS011;838;51.794;12.258;2023-04-15T13:43:20;15.53;;;12.80;;
1679;SDS011;838;51.794;12.258;2023-04-15T13:45:46;12.10;;;10.90;;
1679;SDS011;838;51.794;12.258;2023-04-15T13:48:12;14.00;;;11.90;;
1679;SDS011;838;51.794;12.258;2023-04-15T13:50:37;13.50;;;12.10;;
1679;SDS011;838;51.794;12.258;2023-04-15T13:53:03;12.73;;;11.43;;
1679;SDS011;838;51.794;12.258;2023-04-15T13:55:29;14.13;;;12.67;;
1679;SDS011;838;51.794;12.258;2023-04-15T13:57:55;14.90;;;13.30;;
1679;SDS011;838;51.794;12.258;2023-04-15T14:00:21;15.37;;;12.53;;
1679;SDS011;838;51.794;12.258;2023-04-15T14:02:46;13.43;;;11.77;;
1679;SDS011;838;51.794;12.258;2023-04-15T14:05:12;13.87;;;12.40;;
1679;SDS011;838;51.794;12.258;2023-04-15T14:07:38;14.00;;;12.30;;
1679;SDS011;838;51.794;12.258;2023-04-15T14:10:04;13.97;;;12.57;;
1679;SDS011;838;51.794;12.258;2023-04-15T14:12:31;13.37;;;11.97;;
1679;SDS011;838;51.794;12.258;2023-04-15T14:14:57;12.40;;;11.07;;
1679;SDS011;838;51.794;12.258;2023-04-15T14:17:23;13.80;;;12.07;;
1679;SDS011;838;51.794;12.258;2023-04-15T14:19:50;13.07;;;11.67;;
1679;SDS011;838;51.794;12.258;2023-04-15T14:22:16;14.03;;;12.10;;
1679;SDS011;838;51.794;12.258;2023-04-15T14:24:42;13.37;;;11.93;;
1679;SDS011;838;51.794;12.258;2023-04-15T14:27:08;13.87;;;12.47;;
1679;SDS011;838;51.794;12.258;2023-04-15T14:29:36;11.83;;;10.63;;
1679;SDS011;838;51.794;12.258;2023-04-15T14:32:02;14.07;;;12.50;;
1679;SDS011;838;51.794;12.258;2023-04-15T14:34:28;12.37;;;11.03;;
1679;SDS011;838;51.794;12.258;2023-04-15T14:36:54;12.10;;;10.90;;
1679;SDS011;838;51.794;12.258;2023-04-15T14:39:20;12.80;;;11.43;;
1679;SDS011;838;51.794;12.258;2023-04-15T14:41:45;12.77;;;11.37;;
1679;SDS011;838;51.794;12.258;2023-04-15T14:44:12;12.87;;;11.20;;
1679;SDS011;838;51.794;12.258;2023-04-15T14:46:38;11.90;;;10.70;;
1679;SDS011;838;51.794;12.258;2023-04-15T14:49:05;12.07;;;10.87;;
1679;SDS011;838;51.794;12.258;2023-04-15T14:51:31;11.20;;;10.00;;
1679;SDS011;838;51.794;12.258;2023-04-15T14:53:57;11.70;;;9.40;;
1679;SDS011;838;51.794;12.258;2023-04-15T14:56:22;10.63;;;9.40;;
1679;SDS011;838;51.794;12.258;2023-04-15T14:58:48;11.40;;;9.40;;
1679;SDS011;838;51.794;12.258;2023-04-15T15:01:17;11.80;;;10.10;;
1679;SDS011;838;51.794;12.258;2023-04-15T15:03:42;11.70;;;9.90;;